createdAt,value
2018-01-13T00:00:52.884Z,87.87
2018-01-13T00:02:02.939Z,87.68
2018-01-13T00:03:12.985Z,87.58
2018-01-13T00:04:23.027Z,87.58
2018-01-13T00:05:32.824Z,87.58
2018-01-13T00:06:42.881Z,87.87
2018-01-13T00:07:52.418Z,87.96
2018-01-13T00:09:02.479Z,87.96
2018-01-13T00:10:12.010Z,87.96
2018-01-13T00:11:22.052Z,87.68
2018-01-13T00:12:31.357Z,87.87
2018-01-13T00:13:43.009Z,88.15
2018-01-13T00:14:53.104Z,87.96
2018-01-13T00:16:03.150Z,88.06
2018-01-13T00:17:13.219Z,87.68
2018-01-13T00:18:23.287Z,87.58
2018-01-13T00:19:33.099Z,87.87
2018-01-13T00:20:43.141Z,87.49
2018-01-13T00:21:52.926Z,87.49
2018-01-13T00:23:02.955Z,87.58
2018-01-13T00:24:13.066Z,87.49
2018-01-13T00:25:23.168Z,87.39
2018-01-13T00:26:33.196Z,87.3
2018-01-13T00:27:43.243Z,87.68
2018-01-13T00:28:53.051Z,87.68
2018-01-13T00:30:02.897Z,87.87
2018-01-13T00:31:12.727Z,87.68
2018-01-13T00:32:22.769Z,87.68
2018-01-13T00:33:32.555Z,87.39
2018-01-13T00:34:42.592Z,87.87
2018-01-13T00:35:52.638Z,87.77
2018-01-13T00:37:02.681Z,87.68
2018-01-13T00:38:12.454Z,87.77
2018-01-13T00:39:22.509Z,87.68
2018-01-13T00:40:32.039Z,87.58
2018-01-13T00:41:41.875Z,87.77
2018-01-13T00:42:51.946Z,87.77
2018-01-13T00:44:01.973Z,87.87
2018-01-13T00:45:13.270Z,87.68
2018-01-13T00:46:23.054Z,87.77
2018-01-13T00:47:33.202Z,87.77
2018-01-13T00:48:43.254Z,87.96
2018-01-13T00:49:53.301Z,87.87
2018-01-13T00:51:03.086Z,87.58
2018-01-13T00:52:12.888Z,87.2
2018-01-13T00:53:22.986Z,88.01
2018-01-13T00:54:33.051Z,87.62
2018-01-13T00:55:43.135Z,87.62
2018-01-13T00:56:52.930Z,87.43
2018-01-13T00:58:02.974Z,87.58
2018-01-13T00:59:13.471Z,87.62
2018-01-13T01:00:23.245Z,87.39
2018-01-13T01:01:33.305Z,87.62
2018-01-13T01:02:43.333Z,88.1
2018-01-13T01:03:53.382Z,87.68
2018-01-13T01:05:03.468Z,87.72
2018-01-13T01:06:13.245Z,87.3
2018-01-13T01:07:23.304Z,87.49
2018-01-13T01:08:33.368Z,87.39
2018-01-13T01:09:43.153Z,87.49
2018-01-13T01:10:53.244Z,87.82
2018-01-13T01:12:03.293Z,87.87
2018-01-13T01:13:13.092Z,87.72
2018-01-13T01:14:23.124Z,88.01
2018-01-13T01:15:33.163Z,87.91
2018-01-13T01:16:43.206Z,87.2
2018-01-13T01:17:53.000Z,87.39
2018-01-13T01:19:03.045Z,87.72
2018-01-13T01:20:13.085Z,87.72
2018-01-13T01:21:23.149Z,87.72
2018-01-13T01:22:33.238Z,88.01
2018-01-13T01:23:43.269Z,87.62
2018-01-13T01:24:53.307Z,87.72
2018-01-13T01:26:03.333Z,87.72
2018-01-13T01:27:13.119Z,88.01
2018-01-13T01:28:23.173Z,87.43
2018-01-13T01:29:32.968Z,88.01
2018-01-13T01:30:43.022Z,87.34
2018-01-13T01:31:53.066Z,87.43
2018-01-13T01:33:02.853Z,87.62
2018-01-13T01:34:12.877Z,87.62
2018-01-13T01:35:22.917Z,87.82
2018-01-13T01:36:32.701Z,88.01
2018-01-13T01:37:42.487Z,87.82
2018-01-13T01:38:52.530Z,87.39
2018-01-13T01:40:02.616Z,87.39
2018-01-13T01:41:12.395Z,87.68
2018-01-13T01:42:22.433Z,87.68
2018-01-13T01:43:32.480Z,87.87
2018-01-13T01:44:42.252Z,87.3
2018-01-13T01:45:52.311Z,87.49
2018-01-13T01:47:02.363Z,87.39
2018-01-13T01:48:12.412Z,87.49
2018-01-13T01:49:22.198Z,87.3
2018-01-13T01:50:31.980Z,87.77
2018-01-13T01:51:42.065Z,87.68
2018-01-13T01:52:51.857Z,87.58
2018-01-13T01:54:01.915Z,87.62
2018-01-13T01:55:11.704Z,87.96
2018-01-13T01:56:21.762Z,87.72
2018-01-13T01:57:31.805Z,87.53
2018-01-13T01:58:43.099Z,87.72
2018-01-13T01:59:53.166Z,87.82
2018-01-13T02:01:03.215Z,87.62
2018-01-13T02:02:13.266Z,87.72
2018-01-13T02:03:23.378Z,87.82
2018-01-13T02:04:33.420Z,87.43
2018-01-13T02:05:43.207Z,87.53
2018-01-13T02:06:53.277Z,87.49
2018-01-13T02:08:03.331Z,87.43
2018-01-13T02:09:13.433Z,87.34
2018-01-13T02:10:25.989Z,87.2
2018-01-13T02:11:35.768Z,87.43
2018-01-13T02:12:45.819Z,87.58
2018-01-13T02:13:55.869Z,87.58
2018-01-13T02:15:05.929Z,87.39
2018-01-13T02:16:15.770Z,87.2
2018-01-13T02:17:25.565Z,87.96
2018-01-13T02:18:35.727Z,87.43
2018-01-13T02:19:45.767Z,87.68
2018-01-13T02:20:55.592Z,87.58
2018-01-13T02:22:06.698Z,87.68
2018-01-13T02:23:16.488Z,87.68
2018-01-13T02:24:26.275Z,87.77
2018-01-13T02:25:36.318Z,87.77
2018-01-13T02:26:46.369Z,87.68
2018-01-13T02:27:56.877Z,87.87
2018-01-13T02:29:06.662Z,87.39
2018-01-13T02:30:17.845Z,87.3
2018-01-13T02:31:27.887Z,87.49
2018-01-13T02:32:37.668Z,87.39
2018-01-13T02:33:47.453Z,87.3
2018-01-13T02:34:57.526Z,87.96
2018-01-13T02:36:07.292Z,87.68
2018-01-13T02:37:17.064Z,87.68
2018-01-13T02:38:27.171Z,87.58
2018-01-13T02:39:37.227Z,87.58
2018-01-13T02:40:47.280Z,87.39
2018-01-13T02:41:57.337Z,87.3
2018-01-13T02:43:07.123Z,87.62
2018-01-13T02:44:17.214Z,87.2
2018-01-13T02:45:27.262Z,87.39
2018-01-13T02:46:37.304Z,87.68
2018-01-13T02:47:47.346Z,87.96
2018-01-13T02:48:57.396Z,87.58
2018-01-13T02:50:07.189Z,87.77
2018-01-13T02:51:16.972Z,87.77
2018-01-13T02:52:27.036Z,87.68
2018-01-13T02:53:37.094Z,87.68
2018-01-13T02:54:47.140Z,87.3
2018-01-13T02:55:57.230Z,87.39
2018-01-13T02:57:07.023Z,87.77
2018-01-13T02:58:16.822Z,87.3
2018-01-13T02:59:26.622Z,87.68
2018-01-13T03:00:36.694Z,87.77
2018-01-13T03:01:46.275Z,87.96
2018-01-13T03:33:50.258Z,83.05
2018-01-13T03:35:00.311Z,84
2018-01-13T03:36:10.351Z,84.85
2018-01-13T03:37:20.384Z,85.99
2018-01-13T03:38:30.178Z,87.02
2018-01-13T03:39:40.002Z,87.21
2018-01-13T03:40:50.044Z,88.17
2018-01-13T03:42:00.135Z,88.07
2018-01-13T03:43:10.188Z,88.78
2018-01-13T03:44:20.762Z,88.3
2018-01-13T03:45:30.811Z,88.59
2018-01-13T03:46:40.330Z,88.49
2018-01-13T03:47:51.622Z,88.59
2018-01-13T03:49:01.671Z,88.63
2018-01-13T03:50:11.195Z,88.63
2018-01-13T03:51:21.241Z,88.35
2018-01-13T03:52:31.277Z,88.44
2018-01-13T03:53:41.325Z,88.16
2018-01-13T03:54:51.379Z,87.97
2018-01-13T03:56:01.441Z,88.29
2018-01-13T03:57:11.278Z,87.77
2018-01-13T03:58:21.323Z,88.1
2018-01-13T03:59:31.367Z,87.92
2018-01-13T04:00:41.410Z,87.82
2018-01-13T04:01:51.457Z,87.63
2018-01-13T04:03:01.543Z,87.82
2018-01-13T04:04:11.737Z,87.92
2018-01-13T04:05:21.775Z,87.92
2018-01-13T04:06:31.815Z,87.92
2018-01-13T04:07:41.844Z,87.54
2018-01-13T04:08:51.937Z,87.63
2018-01-13T04:10:02.024Z,87.82
2018-01-13T04:11:12.087Z,87.35
2018-01-13T04:12:21.867Z,87.25
2018-01-13T04:13:31.639Z,87.82
2018-01-13T04:14:41.686Z,87.92
2018-01-13T04:15:51.747Z,87.16
2018-01-13T04:17:01.862Z,87.92
2018-01-13T04:18:11.634Z,88.1
2018-01-13T04:19:21.674Z,87.63
2018-01-13T04:20:31.717Z,87.63
2018-01-13T04:21:41.500Z,87.54
2018-01-13T04:22:51.271Z,87.63
2018-01-13T04:24:00.527Z,87.63
2018-01-13T04:25:10.566Z,87.63
2018-01-13T04:26:20.406Z,87.54
2018-01-13T04:27:30.455Z,87.54
2018-01-13T04:28:40.481Z,87.63
2018-01-13T04:29:50.266Z,87.54
2018-01-13T04:31:00.314Z,87.16
2018-01-13T04:32:10.459Z,86.97
2018-01-13T04:33:20.501Z,86.78
2018-01-13T04:34:30.748Z,87.06
2018-01-13T04:35:40.791Z,87.25
2018-01-13T04:36:50.834Z,87.25
2018-01-13T04:38:00.864Z,87.06
2018-01-13T04:39:10.647Z,87.16
2018-01-13T04:40:20.433Z,87.16
2018-01-13T04:41:30.486Z,87.06
2018-01-13T04:42:40.274Z,87.06
2018-01-13T04:43:50.307Z,87.06
2018-01-13T04:44:59.849Z,87.16
2018-01-13T04:46:09.630Z,87.06
2018-01-13T04:47:19.722Z,87.06
2018-01-13T04:48:29.503Z,87.06
2018-01-13T04:49:39.593Z,87.16
2018-01-13T04:50:49.642Z,87.06
2018-01-13T04:51:59.700Z,86.97
2018-01-13T04:53:09.735Z,87.06
2018-01-13T04:54:19.778Z,86.97
2018-01-13T04:55:29.564Z,87.16
2018-01-13T04:56:39.435Z,87.16
2018-01-13T04:57:49.488Z,87.16
2018-01-13T04:58:59.545Z,86.97
2018-01-13T05:00:09.601Z,87.35
2018-01-13T05:01:19.485Z,87.16
2018-01-13T05:02:29.554Z,87.06
2018-01-13T05:03:40.437Z,87.06
2018-01-13T05:04:50.870Z,86.97
2018-01-13T05:06:00.950Z,87.35
2018-01-13T05:07:12.338Z,86.78
2018-01-13T05:08:22.382Z,87.16
2018-01-13T05:09:32.433Z,87.63
2018-01-13T05:10:42.197Z,87.25
2018-01-13T05:11:52.000Z,86.59
2018-01-13T05:13:02.099Z,86.97
2018-01-13T05:14:13.491Z,87.06
2018-01-13T05:15:23.281Z,86.78
2018-01-13T05:16:33.318Z,86.78
2018-01-13T05:17:43.367Z,87.35
2018-01-13T05:18:53.427Z,87.35
2018-01-13T05:20:03.483Z,87.16
2018-01-13T05:21:13.538Z,87.16
2018-01-13T05:22:23.064Z,86.78
2018-01-13T05:23:33.118Z,87.2
2018-01-13T05:24:42.903Z,87.2
2018-01-13T05:25:52.945Z,87.06
2018-01-13T05:27:02.980Z,87.3
2018-01-13T05:28:12.742Z,87.3
2018-01-13T05:29:22.520Z,87.3
2018-01-13T05:30:32.304Z,87.2
2018-01-13T05:31:42.335Z,87.3
2018-01-13T05:32:52.399Z,87.01
2018-01-13T05:34:02.466Z,87.2
2018-01-13T05:35:12.499Z,86.82
2018-01-13T05:36:22.273Z,87.39
2018-01-13T05:37:32.324Z,87.58
2018-01-13T05:38:42.368Z,87.49
2018-01-13T05:39:52.418Z,87.68
2018-01-13T05:41:01.947Z,87.58
2018-01-13T05:42:12.034Z,87.68
2018-01-13T05:43:21.811Z,87.68
2018-01-13T05:44:31.607Z,87.2
2018-01-13T05:45:41.647Z,87.11
2018-01-13T05:46:51.747Z,87.2
2018-01-13T05:48:01.586Z,87.39
2018-01-13T05:49:11.374Z,87.49
2018-01-13T05:50:20.895Z,87.58
2018-01-13T05:51:30.939Z,87.49
2018-01-13T05:52:40.969Z,87.77
2018-01-13T05:53:50.803Z,87.68
2018-01-13T05:55:00.628Z,87.58
2018-01-13T05:56:10.681Z,87.49
2018-01-13T05:57:20.469Z,87.49
2018-01-13T05:58:30.525Z,87.49
2018-01-13T05:59:40.357Z,87.49
2018-01-13T06:00:49.905Z,87.39
2018-01-13T06:01:59.698Z,87.58
2018-01-13T06:03:09.478Z,87.58
2018-01-13T06:04:19.503Z,87.49
2018-01-13T06:05:29.338Z,87.49
2018-01-13T06:06:39.384Z,87.58
2018-01-13T06:07:49.441Z,87.58
2018-01-13T06:08:59.483Z,87.58
2018-01-13T06:10:09.526Z,87.58
2018-01-13T06:11:19.590Z,87.39
2018-01-13T06:12:29.383Z,87.49
2018-01-13T06:13:39.436Z,87.58
2018-01-13T06:14:50.848Z,87.58
2018-01-13T06:16:00.885Z,87.3
2018-01-13T06:17:10.925Z,87.2
2018-01-13T06:18:20.705Z,87.11
2018-01-13T06:19:30.736Z,87.2
2018-01-13T06:20:40.777Z,87.01
2018-01-13T06:21:50.564Z,87.2
2018-01-13T06:23:00.600Z,87.2
2018-01-13T06:24:10.647Z,86.82
2018-01-13T06:25:20.689Z,87.01
2018-01-13T06:26:30.721Z,87.2
2018-01-13T06:27:40.512Z,87.39
2018-01-13T06:28:50.610Z,87.3
2018-01-13T06:30:00.957Z,87.3
2018-01-13T06:31:11.021Z,87.77
2018-01-13T06:32:21.103Z,87.77
2018-01-13T06:33:31.158Z,87.49
2018-01-13T06:34:41.243Z,87.39
2018-01-13T06:35:51.278Z,87.01
2018-01-13T06:37:01.065Z,87.01
2018-01-13T06:38:11.111Z,87.2
2018-01-13T06:39:20.895Z,87.2
2018-01-13T06:40:30.942Z,87.49
2018-01-13T06:41:40.987Z,87.77
2018-01-13T06:42:50.269Z,87.68
2018-01-13T06:44:00.308Z,87.68
2018-01-13T06:45:10.410Z,87.39
2018-01-13T06:46:21.206Z,87.39
2018-01-13T06:47:31.254Z,87.39
2018-01-13T06:48:41.289Z,87.49
2018-01-13T06:49:51.336Z,87.68
2018-01-13T06:51:01.391Z,87.68
2018-01-13T06:52:11.274Z,87.58
2018-01-13T06:53:21.354Z,87.39
2018-01-13T06:54:31.422Z,87.39
2018-01-13T06:55:41.217Z,87.73
2018-01-13T06:56:51.000Z,87.45
2018-01-13T06:58:01.182Z,87.63
2018-01-13T06:59:11.230Z,87.63
2018-01-13T07:00:21.267Z,87.54
2018-01-13T07:01:31.321Z,87.45
2018-01-13T07:02:41.355Z,87.54
2018-01-13T07:03:51.402Z,87.82
2018-01-13T07:05:01.178Z,87.73
2018-01-13T07:06:11.241Z,87.82
2018-01-13T07:07:21.328Z,87.63
2018-01-13T07:08:31.409Z,87.73
2018-01-13T07:09:41.233Z,87.63
2018-01-13T07:10:51.046Z,87.54
2018-01-13T07:12:01.119Z,87.82
2018-01-13T07:13:11.199Z,87.35
2018-01-13T07:14:20.983Z,87.54
2018-01-13T07:15:31.188Z,87.35
2018-01-13T07:16:42.746Z,87.35
2018-01-13T07:17:53.542Z,87.63
2018-01-13T07:19:03.584Z,87.54
2018-01-13T07:20:13.385Z,87.54
2018-01-13T07:21:23.488Z,87.54
2018-01-13T07:22:33.517Z,87.54
2018-01-13T07:23:43.556Z,87.54
2018-01-13T07:24:53.608Z,87.54
2018-01-13T07:26:03.654Z,87.25
2018-01-13T07:27:13.715Z,87.35
2018-01-13T07:28:23.751Z,87.54
2018-01-13T07:29:33.546Z,87.35
2018-01-13T07:30:43.585Z,87.35
2018-01-13T07:31:53.628Z,87.45
2018-01-13T07:33:03.469Z,87.63
2018-01-13T07:34:13.518Z,87.45
2018-01-13T07:35:23.561Z,87.63
2018-01-13T07:36:33.599Z,87.45
2018-01-13T07:37:43.659Z,87.54
2018-01-13T07:38:54.244Z,87.54
2018-01-13T07:40:04.304Z,87.63
2018-01-13T07:41:14.350Z,87.45
2018-01-13T07:42:24.133Z,87.63
2018-01-13T07:43:34.172Z,87.45
2018-01-13T07:44:44.018Z,87.54
2018-01-13T07:45:54.063Z,87.54
2018-01-13T07:47:04.138Z,87.54
2018-01-13T07:48:14.181Z,87.54
2018-01-13T07:49:24.248Z,86.87
2018-01-13T07:50:34.090Z,87.63
2018-01-13T07:51:43.644Z,87.63
2018-01-13T07:52:53.435Z,87.73
2018-01-13T07:54:03.479Z,87.63
2018-01-13T07:55:13.335Z,87.25
2018-01-13T07:56:23.379Z,86.87
2018-01-13T07:57:33.175Z,87.45
2018-01-13T07:58:43.233Z,87.06
2018-01-13T07:59:53.295Z,87.06
2018-01-13T08:01:02.828Z,87.25
2018-01-13T08:02:12.899Z,87.06
2018-01-13T08:03:22.940Z,87.06
2018-01-13T08:04:32.742Z,86.97
2018-01-13T08:05:42.522Z,87.25
2018-01-13T08:06:52.560Z,87.25
2018-01-13T08:08:02.382Z,87.25
2018-01-13T08:09:12.427Z,87.06
2018-01-13T08:10:22.484Z,87.25
2018-01-13T08:11:32.581Z,87.35
2018-01-13T08:12:42.627Z,87.25
2018-01-13T08:13:52.668Z,87.16
2018-01-13T08:15:02.732Z,87.06
2018-01-13T08:16:12.769Z,87.06
2018-01-13T08:17:22.806Z,86.97
2018-01-13T08:18:32.866Z,86.97
2018-01-13T08:19:42.667Z,86.78
2018-01-13T08:20:52.455Z,86.97
2018-01-13T08:22:02.512Z,86.97
2018-01-13T08:23:12.053Z,86.97
2018-01-13T08:24:22.109Z,87.06
2018-01-13T08:25:33.166Z,87.35
2018-01-13T08:26:42.696Z,87.25
2018-01-13T08:27:52.772Z,87.25
2018-01-13T08:29:02.825Z,87.06
2018-01-13T08:30:13.326Z,87.35
2018-01-13T08:31:23.391Z,87.16
2018-01-13T08:32:33.176Z,87.06
2018-01-13T08:33:43.255Z,87.16
2018-01-13T08:34:53.063Z,87.16
2018-01-13T08:36:03.171Z,87.16
2018-01-13T08:37:13.270Z,87.16
2018-01-13T08:38:23.074Z,87.06
2018-01-13T08:39:32.856Z,87.25
2018-01-13T08:40:42.941Z,87.06
2018-01-13T08:41:52.994Z,87.06
2018-01-13T08:43:02.843Z,87.16
2018-01-13T08:44:12.912Z,87.16
2018-01-13T08:45:22.965Z,87.06
2018-01-13T08:46:33.058Z,87.25
2018-01-13T08:47:42.865Z,87.16
2018-01-13T08:48:53.029Z,87.25
2018-01-13T08:50:03.063Z,86.97
2018-01-13T08:51:12.852Z,87.25
2018-01-13T08:52:22.909Z,87.35
2018-01-13T08:53:32.694Z,86.68
2018-01-13T08:54:42.229Z,86.97
2018-01-13T08:55:52.015Z,86.97
2018-01-13T08:57:01.807Z,86.97
2018-01-13T08:58:11.871Z,86.78
2018-01-13T08:59:21.917Z,86.78
2018-01-13T09:00:31.964Z,86.87
2018-01-13T09:01:41.777Z,86.78
2018-01-13T09:02:51.828Z,86.78
2018-01-13T09:04:01.620Z,86.97
2018-01-13T09:05:11.681Z,87.25
2018-01-13T09:06:21.752Z,87.16
2018-01-13T09:07:31.831Z,87.35
2018-01-13T09:08:41.621Z,87.35
2018-01-13T09:09:51.689Z,87.35
2018-01-13T09:11:01.755Z,87.06
2018-01-13T09:12:11.888Z,87.06
2018-01-13T09:13:21.949Z,87.06
2018-01-13T09:14:31.982Z,87.16
2018-01-13T09:15:42.055Z,87.25
2018-01-13T09:16:52.093Z,87.35
2018-01-13T09:18:02.195Z,87.35
2018-01-13T09:19:12.253Z,87.25
2018-01-13T09:20:22.317Z,87.35
2018-01-13T09:21:32.355Z,86.87
2018-01-13T09:22:42.177Z,86.78
2018-01-13T09:23:52.228Z,87.35
2018-01-13T09:25:02.283Z,86.59
2018-01-13T09:26:12.393Z,86.97
2018-01-13T09:27:22.461Z,86.78
2018-01-13T09:28:32.517Z,86.68
2018-01-13T09:29:42.902Z,86.87
2018-01-13T09:30:52.927Z,86.87
2018-01-13T09:32:03.003Z,86.78
2018-01-13T09:33:12.809Z,86.87
2018-01-13T09:34:22.880Z,86.97
2018-01-13T09:35:32.915Z,86.97
2018-01-13T09:36:42.975Z,87.25
2018-01-13T09:37:52.772Z,86.78
2018-01-13T09:39:04.072Z,86.97
2018-01-13T09:40:14.133Z,86.78
2018-01-13T09:41:23.980Z,86.78
2018-01-13T09:42:34.052Z,86.78
2018-01-13T09:43:44.145Z,86.78
2018-01-13T09:44:53.672Z,86.87
2018-01-13T09:46:03.791Z,86.78
2018-01-13T09:47:13.690Z,86.78
2018-01-13T09:48:23.742Z,86.97
2018-01-13T09:49:33.811Z,86.97
2018-01-13T09:50:43.870Z,86.87
2018-01-13T09:51:55.220Z,87.16
2018-01-13T09:53:05.335Z,86.97
2018-01-13T09:54:15.377Z,86.97
2018-01-13T09:55:25.711Z,86.59
2018-01-13T09:56:35.776Z,86.59
2018-01-13T09:57:45.569Z,86.59
2018-01-13T09:58:55.620Z,87.16
2018-01-13T10:00:05.672Z,87.35
2018-01-13T10:01:15.715Z,87.35
2018-01-13T10:02:25.775Z,86.78
2018-01-13T10:03:35.967Z,86.78
2018-01-13T10:04:45.976Z,86.68
2018-01-13T10:05:56.046Z,86.78
2018-01-13T10:07:06.137Z,86.97
2018-01-13T10:08:16.230Z,87.35
2018-01-13T10:09:26.021Z,86.78
2018-01-13T10:10:36.069Z,86.87
2018-01-13T10:11:46.126Z,87.16
2018-01-13T10:12:55.921Z,87.16
2018-01-13T10:14:05.715Z,86.97
2018-01-13T10:15:15.760Z,86.97
2018-01-13T10:16:25.844Z,87.06
2018-01-13T10:17:35.887Z,87.16
2018-01-13T10:18:45.920Z,87.25
2018-01-13T10:19:57.121Z,86.87
2018-01-13T10:21:07.522Z,86.59
2018-01-13T10:22:17.405Z,86.49
2018-01-13T10:23:27.469Z,86.68
2018-01-13T10:24:37.526Z,86.59
2018-01-13T10:25:47.318Z,86.78
2018-01-13T10:26:57.367Z,86.59
2018-01-13T10:28:07.462Z,86.49
2018-01-13T10:29:17.511Z,86.59
2018-01-13T10:30:27.557Z,86.59
2018-01-13T10:31:37.617Z,86.59
2018-01-13T10:32:47.679Z,86.49
2018-01-13T10:33:57.728Z,87.06
2018-01-13T10:35:07.785Z,87.16
2018-01-13T10:36:18.480Z,87.35
2018-01-13T10:37:28.551Z,86.49
2018-01-13T10:38:38.600Z,86.49
2018-01-13T10:39:48.650Z,86.78
2018-01-13T10:40:58.689Z,87.2
2018-01-13T10:42:08.735Z,86.97
2018-01-13T10:43:18.540Z,86.54
2018-01-13T10:44:28.601Z,86.72
2018-01-13T10:45:38.703Z,86.68
2018-01-13T10:46:48.492Z,86.49
2018-01-13T10:47:58.274Z,86.78
2018-01-13T10:49:08.099Z,86.97
2018-01-13T10:50:18.138Z,86.97
2018-01-13T10:51:27.970Z,86.78
2018-01-13T10:52:37.763Z,87.25
2018-01-13T10:53:47.831Z,87.06
2018-01-13T10:54:57.610Z,87.06
2018-01-13T10:56:07.416Z,87.06
2018-01-13T10:57:17.197Z,87.45
2018-01-13T10:58:27.223Z,87.06
2018-01-13T10:59:37.290Z,87.06
2018-01-13T11:00:47.118Z,87.16
2018-01-13T11:01:58.204Z,86.87
2018-01-13T11:03:08.063Z,86.78
2018-01-13T11:04:18.141Z,86.87
2018-01-13T11:05:28.195Z,86.97
2018-01-13T11:06:38.261Z,86.87
2018-01-13T11:07:48.428Z,86.97
2018-01-13T11:08:58.221Z,86.97
2018-01-13T11:10:08.267Z,86.78
2018-01-13T11:11:18.327Z,86.78
2018-01-13T11:12:28.144Z,86.78
2018-01-13T11:13:37.960Z,87.25
2018-01-13T11:14:48.019Z,86.78
2018-01-13T11:15:58.074Z,87.35
2018-01-13T11:17:07.908Z,87.25
2018-01-13T11:18:17.966Z,87.16
2018-01-13T11:19:28.027Z,86.97
2018-01-13T11:20:38.392Z,86.78
2018-01-13T11:21:48.481Z,86.97
2018-01-13T11:22:58.846Z,86.78
2018-01-13T11:24:08.892Z,87.06
2018-01-13T11:25:18.431Z,87.25
2018-01-13T11:26:28.467Z,87.06
2018-01-13T11:27:38.268Z,86.97
2018-01-13T11:28:48.314Z,86.97
2018-01-13T11:29:58.362Z,87.16
2018-01-13T11:31:08.435Z,87.16
2018-01-13T11:32:18.511Z,87.45
2018-01-13T11:33:28.308Z,87.25
2018-01-13T11:34:38.093Z,87.16
2018-01-13T11:35:48.408Z,87.25
2018-01-13T11:36:58.468Z,87.06
2018-01-13T11:38:09.678Z,87.06
2018-01-13T11:39:19.748Z,87.16
2018-01-13T11:40:29.813Z,87.06
2018-01-13T11:41:39.384Z,87.06
2018-01-13T11:42:49.181Z,87.16
2018-01-13T11:43:59.037Z,87.06
2018-01-13T11:45:09.101Z,87.25
2018-01-13T11:46:19.153Z,87.06
2018-01-13T11:47:28.944Z,87.16
2018-01-13T11:48:38.988Z,87.25
2018-01-13T11:49:49.030Z,87.16
2018-01-13T11:50:58.852Z,87.35
2018-01-13T11:52:08.897Z,87.35
2018-01-13T11:53:18.700Z,87.06
2018-01-13T11:54:28.489Z,87.16
2018-01-13T11:55:38.578Z,87.35
2018-01-13T11:56:48.626Z,87.35
2018-01-13T11:57:58.659Z,87.25
2018-01-13T11:59:08.699Z,86.97
2018-01-13T12:00:18.757Z,87.06
2018-01-13T12:01:28.872Z,87.06
2018-01-13T12:02:38.696Z,87.16
2018-01-13T12:03:48.820Z,86.97
2018-01-13T12:04:58.925Z,86.78
2018-01-13T12:06:08.974Z,86.68
2018-01-13T12:07:19.068Z,86.87
2018-01-13T12:08:29.129Z,87.16
2018-01-13T12:09:39.183Z,86.97
2018-01-13T12:10:49.238Z,86.68
2018-01-13T12:11:59.281Z,86.59
2018-01-13T12:13:09.108Z,86.97
2018-01-13T12:14:19.169Z,86.97
2018-01-13T12:15:28.973Z,87.25
2018-01-13T12:16:39.080Z,87.35
2018-01-13T12:17:49.118Z,86.87
2018-01-13T12:18:59.172Z,86.97
2018-01-13T12:20:08.958Z,86.87
2018-01-13T12:21:18.512Z,86.78
2018-01-13T12:22:29.868Z,86.97
2018-01-13T12:23:39.927Z,87.16
2018-01-13T12:24:49.757Z,87.45
2018-01-13T12:25:59.556Z,87.16
2018-01-13T12:27:09.624Z,87.16
2018-01-13T12:28:19.660Z,87.16
2018-01-13T12:29:29.705Z,87.25
2018-01-13T12:30:39.542Z,87.06
2018-01-13T12:31:50.888Z,87.35
2018-01-13T12:33:00.940Z,86.87
2018-01-13T12:34:10.722Z,86.87
2018-01-13T12:35:20.520Z,86.82
2018-01-13T12:36:30.581Z,86.82
2018-01-13T12:37:40.357Z,86.59
2018-01-13T12:38:50.148Z,86.72
2018-01-13T12:40:00.010Z,86.82
2018-01-13T12:41:10.094Z,86.82
2018-01-13T12:42:19.629Z,87.2
2018-01-13T12:43:29.666Z,87.01
2018-01-13T12:44:39.731Z,86.91
2018-01-13T12:45:49.814Z,87.01
2018-01-13T12:46:59.605Z,87.3
2018-01-13T12:48:09.702Z,87.2
2018-01-13T12:49:19.224Z,86.63
2018-01-13T12:50:29.266Z,86.82
2018-01-13T12:51:39.327Z,86.82
2018-01-13T12:52:49.398Z,87.39
2018-01-13T12:53:59.456Z,87.2
2018-01-13T12:55:09.512Z,87.39
2018-01-13T12:56:19.559Z,86.91
2018-01-13T12:57:29.628Z,86.72
2018-01-13T12:58:39.675Z,86.72
2018-01-13T12:59:49.752Z,86.91
2018-01-13T13:00:59.802Z,87.39
2018-01-13T13:02:09.852Z,87.39
2018-01-13T13:03:21.299Z,87.3
2018-01-13T13:04:31.108Z,87.01
2018-01-13T13:05:41.157Z,87.11
2018-01-13T13:06:51.266Z,87.2
2018-01-13T13:08:01.063Z,87.11
2018-01-13T13:09:11.117Z,87.3
2018-01-13T13:10:20.906Z,87.2
2018-01-13T13:11:30.959Z,87.11
2018-01-13T13:12:41.076Z,87.11
2018-01-13T13:13:51.156Z,87.2
2018-01-13T13:15:01.218Z,87.2
2018-01-13T13:16:11.022Z,87.2
2018-01-13T13:17:21.115Z,87.11
2018-01-13T13:18:31.177Z,87.01
2018-01-13T13:19:40.741Z,87.11
2018-01-13T13:20:50.802Z,87.3
2018-01-13T13:22:00.584Z,87.3
2018-01-13T13:23:10.365Z,87.2
2018-01-13T13:24:20.445Z,87.3
2018-01-13T13:25:30.498Z,87.2
2018-01-13T13:26:40.548Z,87.2
2018-01-13T13:27:50.606Z,87.11
2018-01-13T13:29:00.752Z,87.2
2018-01-13T13:30:10.820Z,87.01
2018-01-13T13:31:20.608Z,87.01
2018-01-13T13:32:30.650Z,87.3
2018-01-13T13:33:40.171Z,87.2
2018-01-13T13:34:49.967Z,87.39
2018-01-13T13:36:00.026Z,87.58
2018-01-13T13:37:10.067Z,87.11
2018-01-13T13:38:19.863Z,87.68
2018-01-13T13:39:29.940Z,87.11
2018-01-13T13:40:40.054Z,87.01
2018-01-13T13:41:50.673Z,87.3
2018-01-13T13:43:00.734Z,87.2
2018-01-13T13:44:10.787Z,87.2
2018-01-13T13:45:20.586Z,87.11
2018-01-13T13:46:30.645Z,87.11
2018-01-13T13:47:40.697Z,87.2
2018-01-13T13:48:50.752Z,87.01
2018-01-13T13:50:00.807Z,87.39
2018-01-13T13:51:10.654Z,87.11
2018-01-13T13:52:20.717Z,86.72
2018-01-13T13:53:30.760Z,87.58
2018-01-13T13:54:40.821Z,87.58
2018-01-13T13:55:50.883Z,87.49
2018-01-13T13:57:00.936Z,87.49
2018-01-13T13:58:11.011Z,87.58
2018-01-13T13:59:21.116Z,87.68
2018-01-13T14:00:31.181Z,87.68
2018-01-13T14:01:41.292Z,87.58
2018-01-13T14:02:51.396Z,87.49
2018-01-13T14:04:01.466Z,87.58
2018-01-13T14:05:11.583Z,87.58
2018-01-13T14:06:21.378Z,87.58
2018-01-13T14:07:31.181Z,87.58
2018-01-13T14:08:41.308Z,87.77
2018-01-13T14:09:51.359Z,87.49
2018-01-13T14:11:03.817Z,87.58
2018-01-13T14:12:13.878Z,87.39
2018-01-13T14:13:23.912Z,87.39
2018-01-13T14:14:33.993Z,87.39
2018-01-13T14:15:44.026Z,87.58
2018-01-13T14:16:54.065Z,87.2
2018-01-13T14:18:04.098Z,86.82
2018-01-13T14:19:13.627Z,86.91
2018-01-13T14:20:23.156Z,86.82
2018-01-13T14:21:32.982Z,87.2
2018-01-13T14:22:42.527Z,87.3
2018-01-13T14:23:52.571Z,87.11
2018-01-13T14:25:02.904Z,87.3
2018-01-13T14:26:12.720Z,87.2
2018-01-13T14:27:25.439Z,87.11
2018-01-13T14:28:35.246Z,87.2
2018-01-13T14:29:45.310Z,87.01
2018-01-13T14:30:55.152Z,87.3
2018-01-13T14:32:05.198Z,87.11
2018-01-13T14:33:15.301Z,87.01
2018-01-13T14:34:25.349Z,86.82
2018-01-13T14:35:35.149Z,86.82
2018-01-13T14:36:45.215Z,87.11
2018-01-13T14:37:55.261Z,87.2
2018-01-13T14:39:05.334Z,87.11
2018-01-13T14:40:15.389Z,87.2
2018-01-13T14:41:25.446Z,87.2
2018-01-13T14:42:35.497Z,87.3
2018-01-13T14:43:45.302Z,87.2
2018-01-13T14:44:55.344Z,87.3
2018-01-13T14:46:05.406Z,87.11
2018-01-13T14:47:15.462Z,87.11
2018-01-13T14:48:25.542Z,87.01
2018-01-13T14:49:35.502Z,87.01
2018-01-13T14:50:45.724Z,87.01
2018-01-13T14:51:55.796Z,87.01
2018-01-13T14:53:05.598Z,87.01
2018-01-13T14:54:15.651Z,87.01
2018-01-13T14:55:25.701Z,87.01
2018-01-13T14:56:35.488Z,87.01
2018-01-13T14:57:45.280Z,87.11
2018-01-13T14:58:55.327Z,86.82
2018-01-13T15:06:17.554Z,87.01
2018-01-13T15:07:28.794Z,87.39
2018-01-13T15:08:38.850Z,87.2
2018-01-13T15:09:48.894Z,86.82
2018-01-13T15:10:58.955Z,87.01
2018-01-13T15:12:08.748Z,87.01
2018-01-13T15:13:18.598Z,87.11
2018-01-13T15:14:28.660Z,87.39
2018-01-13T15:15:39.675Z,87.39
2018-01-13T15:16:49.736Z,87.2
2018-01-13T15:17:59.781Z,87.39
2018-01-13T15:19:09.861Z,87.3
2018-01-13T15:20:19.915Z,87.3
2018-01-13T15:21:29.970Z,87.77
2018-01-13T15:22:40.040Z,87.3
2018-01-13T15:23:50.186Z,87.39
2018-01-13T15:25:00.257Z,87.39
2018-01-13T15:26:10.331Z,87.2
2018-01-13T15:27:20.134Z,87.2
2018-01-13T15:28:30.187Z,87.3
2018-01-13T15:29:40.325Z,87.11
2018-01-13T15:30:50.417Z,87.68
2018-01-13T15:32:00.542Z,87.2
2018-01-13T15:33:10.415Z,87.39
2018-01-13T15:34:19.953Z,87.3
2018-01-13T15:35:30.051Z,87.49
2018-01-13T15:36:40.093Z,87.58
2018-01-13T15:37:49.966Z,87.39
2018-01-13T15:39:00.034Z,87.39
2018-01-13T15:40:10.146Z,87.3
2018-01-13T15:41:20.000Z,87.39
2018-01-13T15:42:30.072Z,87.3